createdAt,value
2023-04-02T00:01:48.935Z,100.00
2023-04-02T01:18:59.374Z,100.00
2023-04-02T01:22:07.332Z,100.00
2023-04-02T01:30:34.365Z,100.00
2023-04-02T01:40:17.404Z,100.00
2023-04-02T02:00:05.994Z,100.00
2023-04-02T02:03:09.475Z,100.00
2023-04-02T02:32:33.613Z,100.00
2023-04-02T04:32:43.559Z,100.00
2023-04-02T04:35:37.187Z,100.00
2023-04-02T04:38:17.834Z,100.00
2023-04-02T04:43:44.138Z,100.00
2023-04-02T04:46:32.189Z,100.00
2023-04-02T04:49:56.901Z,100.00
2023-04-02T04:52:19.715Z,100.00
2023-04-02T05:04:42.318Z,100.00
2023-04-02T05:32:58.628Z,100.00
2023-04-02T05:35:11.564Z,100.00
2023-04-02T05:37:14.712Z,100.00
2023-04-02T05:39:39.530Z,100.00
2023-04-02T05:41:56.145Z,100.00
2023-04-02T05:44:28.139Z,100.00
2023-04-02T05:46:35.657Z,100.00
2023-04-02T05:49:25.857Z,100.00
2023-04-02T05:52:59.175Z,100.00
2023-04-02T05:59:45.502Z,100.00
2023-04-02T06:02:19.980Z,100.00
2023-04-02T06:05:28.533Z,100.00
2023-04-02T06:20:30.816Z,100.00
2023-04-02T06:23:05.348Z,100.00
2023-04-02T06:25:39.223Z,100.00
2023-04-02T06:27:55.536Z,100.00
2023-04-02T06:30:33.855Z,100.00
2023-04-02T06:33:38.985Z,100.00
2023-04-02T06:43:05.774Z,100.00
2023-04-02T06:45:30.705Z,100.00
2023-04-02T06:47:34.980Z,100.00
2023-04-02T06:49:39.139Z,100.00
2023-04-02T06:51:40.909Z,100.00
2023-04-02T06:53:54.148Z,100.00
2023-04-02T06:55:56.360Z,100.00
2023-04-02T06:57:58.031Z,100.00
2023-04-02T06:59:54.733Z,100.00
2023-04-02T07:01:58.639Z,100.00
2023-04-02T07:04:02.713Z,100.00
2023-04-02T07:06:04.982Z,100.00
2023-04-02T07:08:04.637Z,100.00
2023-04-02T07:10:07.385Z,100.00
2023-04-02T07:12:06.158Z,100.00
2023-04-02T07:14:11.728Z,100.00
2023-04-02T07:16:10.915Z,100.00
2023-04-02T07:18:48.919Z,100.00
2023-04-02T07:22:27.510Z,100.00
2023-04-02T07:24:23.130Z,100.00
2023-04-02T08:07:34.597Z,100.00
2023-04-02T08:09:54.490Z,100.00
2023-04-02T08:11:51.394Z,100.00
2023-04-02T08:13:50.299Z,100.00
2023-04-02T08:15:52.196Z,100.00
2023-04-02T08:17:48.716Z,100.00
2023-04-02T08:19:54.723Z,100.00
2023-04-02T08:21:52.035Z,100.00
2023-04-02T08:23:48.163Z,100.00
2023-04-02T08:25:43.465Z,100.00
2023-04-02T08:27:38.963Z,100.00
2023-04-02T08:29:35.032Z,100.00
2023-04-02T08:31:30.648Z,100.00
2023-04-02T08:33:26.356Z,100.00
2023-04-02T08:35:24.911Z,100.00
2023-04-02T08:37:20.148Z,100.00
2023-04-02T08:39:15.720Z,100.00
2023-04-02T08:41:21.690Z,100.00
2023-04-02T08:43:40.929Z,100.00
2023-04-02T08:45:49.887Z,100.00
2023-04-02T08:47:47.454Z,100.00
2023-04-02T08:49:47.650Z,100.00
2023-04-02T08:51:47.135Z,100.00
2023-04-02T08:53:43.572Z,100.00
2023-04-02T08:55:47.963Z,100.00
2023-04-02T08:57:52.546Z,100.00
2023-04-02T08:59:48.587Z,100.00
2023-04-02T09:01:54.935Z,100.00
2023-04-02T09:03:54.196Z,100.00
2023-04-02T09:05:54.262Z,100.00
2023-04-02T09:07:54.852Z,100.00
2023-04-02T09:09:56.998Z,100.00
2023-04-02T09:12:01.034Z,100.00
2023-04-02T09:14:00.790Z,100.00
2023-04-02T09:16:09.109Z,100.00
2023-04-02T09:18:23.836Z,100.00
2023-04-02T09:20:33.194Z,100.00
2023-04-02T09:22:31.924Z,100.00
2023-04-02T09:43:06.303Z,100.00
2023-04-02T09:45:49.754Z,100.00
2023-04-02T09:47:52.823Z,100.00
2023-04-02T09:49:57.721Z,100.00
2023-04-02T09:52:36.607Z,100.00
2023-04-02T09:54:45.232Z,100.00
2023-04-02T09:57:20.033Z,100.00
2023-04-02T10:02:19.880Z,100.00
2023-04-02T10:04:59.166Z,100.00
2023-04-02T10:07:00.547Z,100.00
2023-04-02T10:09:45.446Z,100.00
2023-04-02T10:11:54.760Z,100.00
2023-04-02T10:14:26.892Z,100.00
2023-04-02T10:16:50.376Z,100.00
2023-04-02T10:19:21.307Z,100.00
2023-04-02T10:21:21.713Z,100.00
2023-04-02T10:23:19.716Z,100.00
2023-04-02T10:25:17.607Z,100.00
2023-04-02T10:27:26.348Z,100.00
2023-04-02T10:29:38.872Z,100.00
2023-04-02T10:31:42.533Z,100.00
2023-04-02T10:33:40.710Z,100.00
2023-04-02T10:35:45.354Z,100.00
2023-04-02T10:37:55.141Z,100.00
2023-04-02T10:39:58.493Z,98.21
2023-04-02T10:42:00.293Z,99.30
2023-04-02T10:44:30.288Z,100.00
2023-04-02T10:46:32.241Z,100.00
2023-04-02T10:48:37.828Z,97.15
2023-04-02T10:50:42.066Z,95.37
2023-04-02T10:52:59.845Z,100.00
2023-04-02T10:54:58.148Z,100.00
2023-04-02T10:56:55.953Z,100.00
2023-04-02T10:58:57.541Z,98.44
2023-04-02T11:00:54.813Z,94.34
2023-04-02T11:02:54.210Z,94.17
2023-04-02T11:04:50.205Z,98.35
2023-04-02T11:07:00.597Z,100.00
2023-04-02T11:10:10.596Z,96.96
2023-04-02T11:12:33.192Z,96.51
2023-04-02T11:14:33.136Z,100.00
2023-04-02T11:16:37.204Z,99.98
2023-04-02T11:18:41.781Z,100.00
2023-04-02T11:21:06.254Z,100.00
2023-04-02T11:23:28.378Z,100.00
2023-04-02T11:25:55.067Z,100.00
2023-04-02T11:28:43.601Z,100.00
2023-04-02T11:31:04.416Z,100.00
2023-04-02T11:34:03.299Z,100.00
2023-04-02T11:36:02.423Z,100.00
2023-04-02T11:38:28.377Z,98.62
2023-04-02T11:40:51.333Z,99.58
2023-04-02T11:42:54.907Z,100.00
2023-04-02T11:45:50.180Z,100.00
2023-04-02T11:48:37.371Z,100.00
2023-04-02T11:51:06.089Z,99.56
2023-04-02T11:53:19.699Z,100.00
2023-04-02T11:55:46.640Z,100.00
2023-04-02T11:58:54.160Z,99.00
2023-04-02T12:08:58.015Z,96.55
2023-04-02T12:14:11.508Z,97.99
2023-04-02T12:16:20.469Z,96.29
2023-04-02T12:18:40.209Z,98.78
2023-04-02T12:21:05.242Z,95.06
2023-04-02T12:23:35.266Z,89.29
2023-04-02T12:26:31.207Z,100.00
2023-04-02T12:28:29.044Z,97.44
2023-04-02T12:31:00.098Z,90.93
2023-04-02T12:33:19.427Z,98.47
2023-04-02T12:35:45.314Z,97.12
2023-04-02T12:37:41.139Z,92.71
2023-04-02T12:39:37.937Z,92.78
2023-04-02T12:41:39.664Z,95.58
2023-04-02T12:43:38.210Z,93.35
2023-04-02T12:45:36.969Z,100.00
2023-04-02T12:47:33.060Z,100.00
2023-04-02T12:49:41.235Z,97.86
2023-04-02T12:51:39.498Z,95.84
2023-04-02T12:53:42.927Z,92.71
2023-04-02T12:55:38.828Z,88.65
2023-04-02T12:57:42.601Z,90.86
2023-04-02T12:59:42.420Z,89.39
2023-04-02T13:01:38.255Z,84.29
2023-04-02T13:03:33.909Z,74.14
2023-04-02T13:05:39.712Z,76.20
2023-04-02T13:07:36.524Z,73.28
2023-04-02T13:09:37.184Z,72.94
2023-04-02T13:11:40.584Z,77.29
2023-04-02T13:13:41.504Z,72.12
2023-04-02T13:15:38.019Z,78.72
2023-04-02T13:17:41.818Z,79.33
2023-04-02T13:19:37.408Z,77.01
2023-04-02T13:21:33.832Z,75.51
2023-04-02T13:23:38.278Z,77.81
2023-04-02T13:25:38.175Z,84.53
2023-04-02T13:27:34.020Z,68.67
2023-04-02T13:29:33.605Z,66.86
2023-04-02T13:31:29.414Z,65.96
2023-04-02T13:33:24.515Z,63.82
2023-04-02T13:35:20.085Z,60.93
2023-04-02T13:37:16.307Z,61.58
2023-04-02T13:39:11.971Z,56.40
2023-04-02T13:41:07.824Z,61.75
2023-04-02T13:43:03.820Z,57.67
2023-04-02T13:45:26.576Z,57.35
2023-04-02T13:47:21.939Z,57.16
2023-04-02T13:49:18.546Z,59.08
2023-04-02T13:51:23.237Z,59.63
2023-04-02T13:53:25.076Z,61.49
2023-04-02T13:55:26.949Z,64.52
2023-04-02T13:57:22.853Z,62.76
2023-04-02T13:59:20.550Z,63.89
2023-04-02T14:01:23.031Z,62.21
2023-04-02T14:03:22.737Z,66.08
2023-04-02T14:05:33.371Z,60.83
2023-04-02T14:07:44.697Z,60.25
2023-04-02T14:09:50.983Z,60.39
2023-04-02T14:11:56.847Z,62.26
2023-04-02T14:14:12.005Z,65.46
2023-04-02T14:16:21.792Z,67.09
2023-04-02T14:18:41.471Z,64.51
2023-04-02T14:21:10.326Z,61.84
2023-04-02T14:23:26.247Z,61.61
2023-04-02T14:25:29.373Z,61.80
2023-04-02T14:27:34.610Z,57.66
2023-04-02T14:29:36.787Z,57.66
2023-04-02T14:31:42.768Z,53.47
2023-04-02T14:33:47.741Z,54.47
2023-04-02T14:35:48.163Z,54.26
2023-04-02T14:37:52.453Z,57.16
2023-04-02T14:39:57.522Z,58.55
2023-04-02T14:41:58.890Z,57.80
2023-04-02T14:43:57.384Z,58.39
2023-04-02T14:46:00.330Z,57.47
2023-04-02T14:48:12.864Z,58.17
2023-04-02T14:50:15.314Z,56.24
2023-04-02T14:52:26.073Z,56.95
2023-04-02T14:54:37.244Z,58.46
2023-04-02T14:57:12.503Z,56.71
2023-04-02T14:59:26.846Z,71.05
2023-04-02T15:01:27.815Z,61.28
2023-04-02T15:03:34.175Z,60.11
2023-04-02T15:05:39.876Z,61.82
2023-04-02T15:10:53.522Z,58.09
2023-04-02T15:12:51.361Z,59.81
2023-04-02T15:14:50.948Z,62.33
2023-04-02T15:16:47.077Z,60.90
2023-04-02T15:18:45.165Z,62.00
2023-04-02T15:20:46.438Z,63.72
2023-04-02T15:22:52.104Z,62.94
2023-04-02T15:24:58.304Z,63.92
2023-04-02T15:27:09.617Z,62.92
2023-04-02T15:29:29.599Z,62.93
2023-04-02T15:31:30.765Z,63.78
2023-04-02T15:33:38.732Z,64.09
2023-04-02T15:35:43.847Z,62.78
2023-04-02T15:37:48.826Z,65.64
2023-04-02T15:40:03.114Z,64.33
2023-04-02T15:42:09.219Z,66.23
2023-04-02T15:44:12.677Z,67.94
2023-04-02T15:46:19.641Z,65.76
2023-04-02T15:48:40.896Z,66.79
2023-04-02T15:50:50.895Z,65.06
2023-04-02T15:53:05.087Z,62.58
2023-04-02T15:55:39.751Z,65.03
2023-04-02T15:58:04.405Z,67.85
2023-04-02T16:00:16.817Z,64.25
2023-04-02T16:02:40.860Z,59.95
2023-04-02T16:04:48.918Z,61.12
2023-04-02T16:07:04.498Z,61.27
2023-04-02T16:09:13.832Z,61.40
2023-04-02T16:14:53.927Z,59.57
2023-04-02T16:17:25.420Z,59.11
2023-04-02T16:19:43.478Z,62.40
2023-04-02T16:21:59.099Z,62.03
2023-04-02T16:24:09.065Z,60.50
2023-04-02T16:26:13.891Z,60.61
2023-04-02T16:28:25.681Z,59.56
2023-04-02T16:30:57.641Z,58.33
2023-04-02T16:33:20.219Z,57.54
2023-04-02T16:37:57.173Z,58.59
2023-04-02T16:40:02.028Z,59.49
2023-04-02T16:42:07.204Z,59.87
2023-04-02T16:44:16.836Z,60.18
2023-04-02T16:46:38.149Z,60.93
2023-04-02T16:48:46.517Z,59.51
2023-04-02T16:50:55.598Z,60.07
2023-04-02T16:53:03.273Z,64.53
2023-04-02T16:55:14.348Z,61.93
2023-04-02T16:57:23.369Z,61.36
2023-04-02T16:59:28.496Z,60.62
2023-04-02T17:01:37.421Z,60.42
2023-04-02T17:04:06.655Z,64.08
2023-04-02T17:06:10.097Z,66.38
2023-04-02T17:08:19.302Z,63.88
2023-04-02T17:10:26.327Z,65.43
2023-04-02T17:12:24.765Z,65.30
2023-04-02T17:14:29.582Z,65.01
2023-04-02T17:16:34.133Z,66.31
2023-04-02T17:18:29.446Z,64.86
2023-04-02T17:20:28.176Z,65.82
2023-04-02T17:22:24.986Z,68.26
2023-04-02T17:24:30.034Z,68.45
2023-04-02T17:26:28.623Z,68.33
2023-04-02T17:28:30.247Z,67.56
2023-04-02T17:30:37.248Z,69.88
2023-04-02T17:32:37.078Z,70.82
2023-04-02T17:34:33.097Z,73.00
2023-04-02T17:36:46.621Z,73.29
2023-04-02T17:38:54.454Z,74.32
2023-04-02T17:40:58.202Z,74.75
2023-04-02T17:43:02.263Z,75.31
2023-04-02T17:45:12.235Z,76.64
2023-04-02T17:47:19.528Z,76.18
2023-04-02T17:49:26.317Z,77.01
2023-04-02T17:51:33.003Z,78.54
2023-04-02T17:53:42.572Z,82.20
2023-04-02T17:55:51.006Z,82.31
2023-04-02T17:58:02.694Z,81.55
2023-04-02T18:00:25.071Z,82.97
2023-04-02T18:02:33.414Z,83.38
2023-04-02T18:04:41.710Z,83.95
2023-04-02T18:06:46.672Z,85.12
2023-04-02T18:08:54.096Z,85.16
2023-04-02T18:11:03.613Z,85.76
2023-04-02T18:13:10.402Z,87.07
2023-04-02T18:15:53.900Z,85.37
2023-04-02T18:18:08.811Z,86.30
2023-04-02T18:20:22.738Z,86.90
2023-04-02T18:22:27.607Z,89.07
2023-04-02T18:25:18.219Z,90.09
2023-04-02T18:27:36.634Z,95.25
2023-04-02T18:29:58.880Z,91.07
2023-04-02T18:32:05.255Z,91.83
2023-04-02T18:34:28.886Z,91.44
2023-04-02T18:36:36.949Z,91.98
2023-04-02T18:38:44.218Z,92.06
2023-04-02T18:40:53.137Z,93.06
2023-04-02T18:43:01.368Z,94.51
2023-04-02T18:45:09.357Z,93.30
2023-04-02T18:47:19.528Z,93.35
2023-04-02T18:49:26.792Z,94.05
2023-04-02T18:51:26.196Z,94.47
2023-04-02T18:53:26.161Z,96.53
2023-04-02T18:55:25.859Z,100.00
2023-04-02T18:57:26.421Z,98.03
2023-04-02T18:59:34.387Z,97.18
2023-04-02T19:01:37.638Z,97.28
2023-04-02T19:03:39.641Z,100.00
2023-04-02T19:05:44.814Z,99.50
2023-04-02T19:07:44.536Z,98.41
2023-04-02T19:09:42.954Z,98.75
2023-04-02T19:11:46.730Z,98.93
2023-04-02T19:13:45.446Z,99.94
2023-04-02T19:15:51.433Z,100.00
2023-04-02T19:17:59.579Z,100.00
2023-04-02T19:20:11.070Z,100.00
2023-04-02T19:22:17.025Z,100.00
2023-04-02T19:24:33.265Z,100.00
2023-04-02T19:26:43.340Z,100.00
2023-04-02T19:28:48.457Z,100.00
2023-04-02T19:30:55.964Z,100.00
2023-04-02T19:33:03.686Z,100.00
2023-04-02T19:35:10.461Z,100.00
2023-04-02T19:37:14.396Z,100.00
2023-04-02T19:39:31.173Z,100.00
2023-04-02T19:41:34.801Z,100.00
2023-04-02T19:43:30.344Z,100.00
2023-04-02T19:45:38.973Z,100.00
2023-04-02T19:47:41.937Z,100.00
2023-04-02T19:49:40.846Z,100.00
2023-04-02T19:51:36.882Z,100.00
2023-04-02T19:53:33.875Z,100.00
2023-04-02T19:55:30.122Z,100.00
2023-04-02T19:57:26.223Z,100.00
2023-04-02T19:59:21.977Z,100.00
2023-04-02T20:01:18.254Z,100.00
2023-04-02T20:03:13.670Z,100.00
2023-04-02T20:05:13.621Z,100.00
2023-04-02T20:07:08.814Z,100.00
2023-04-02T20:09:04.823Z,100.00
2023-04-02T20:11:01.894Z,100.00
2023-04-02T20:12:58.091Z,100.00
2023-04-02T20:14:53.792Z,100.00
2023-04-02T20:16:49.911Z,100.00
2023-04-02T20:18:46.255Z,100.00
2023-04-02T20:20:44.803Z,100.00
2023-04-02T20:22:40.278Z,100.00
2023-04-02T20:24:36.262Z,100.00
2023-04-02T20:26:32.372Z,100.00
2023-04-02T20:28:29.877Z,100.00
2023-04-02T20:30:25.332Z,100.00
2023-04-02T20:32:21.790Z,100.00
2023-04-02T20:34:17.294Z,100.00
2023-04-02T20:36:17.708Z,100.00
2023-04-02T20:38:13.587Z,100.00
2023-04-02T20:40:17.833Z,100.00
2023-04-02T20:42:14.452Z,100.00
2023-04-02T20:44:10.275Z,100.00
2023-04-02T20:46:10.035Z,100.00
2023-04-02T20:48:07.647Z,100.00
2023-04-02T20:50:03.272Z,100.00
2023-04-02T20:52:02.417Z,100.00
2023-04-02T20:53:58.176Z,100.00
2023-04-02T20:55:55.530Z,100.00
2023-04-02T20:57:51.596Z,100.00
2023-04-02T20:59:49.705Z,100.00
2023-04-02T21:01:45.910Z,100.00
2023-04-02T21:03:42.690Z,100.00
2023-04-02T21:05:38.251Z,100.00
2023-04-02T21:07:37.436Z,100.00
2023-04-02T21:09:33.643Z,100.00
2023-04-02T21:11:30.688Z,100.00
2023-04-02T21:13:27.422Z,100.00
2023-04-02T21:16:18.149Z,100.00
2023-04-02T21:18:24.396Z,100.00
2023-04-02T21:20:32.556Z,100.00
2023-04-02T21:22:29.763Z,100.00
2023-04-02T21:24:51.905Z,100.00
2023-04-02T21:27:30.608Z,100.00
2023-04-02T21:29:32.420Z,100.00
2023-04-02T21:31:59.789Z,100.00
2023-04-02T21:34:04.699Z,100.00
2023-04-02T21:36:12.924Z,100.00
2023-04-02T21:38:14.465Z,100.00
2023-04-02T21:40:19.005Z,100.00
2023-04-02T21:42:34.190Z,100.00
2023-04-02T21:44:40.233Z,100.00
2023-04-02T21:47:02.776Z,100.00
2023-04-02T21:49:17.192Z,100.00
2023-04-02T21:51:35.766Z,100.00
2023-04-02T21:53:32.439Z,100.00
2023-04-02T21:55:34.770Z,100.00
2023-04-02T21:57:35.826Z,100.00
2023-04-02T21:59:39.110Z,100.00
2023-04-02T22:01:42.044Z,100.00
2023-04-02T22:03:54.832Z,100.00
2023-04-02T22:05:51.166Z,100.00
2023-04-02T22:07:57.037Z,100.00
2023-04-02T22:10:15.058Z,100.00
2023-04-02T22:12:26.132Z,100.00
2023-04-02T22:14:22.190Z,100.00
2023-04-02T22:16:21.166Z,100.00
2023-04-02T22:18:17.465Z,100.00
2023-04-02T22:20:17.023Z,100.00
2023-04-02T22:22:13.985Z,100.00
2023-04-02T22:24:19.630Z,100.00
2023-04-02T22:26:16.819Z,100.00
2023-04-02T22:28:16.056Z,100.00
2023-04-02T22:30:16.347Z,100.00
2023-04-02T22:32:13.176Z,100.00
2023-04-02T22:34:10.662Z,100.00
2023-04-02T22:36:09.909Z,100.00
2023-04-02T22:38:43.647Z,100.00
2023-04-02T22:41:17.634Z,100.00
2023-04-02T22:43:21.020Z,100.00
2023-04-02T22:45:19.081Z,100.00
2023-04-02T22:47:17.630Z,100.00
2023-04-02T22:49:20.188Z,100.00
2023-04-02T22:51:18.455Z,100.00
2023-04-02T22:53:17.143Z,100.00
2023-04-02T22:55:15.661Z,100.00
2023-04-02T22:57:11.745Z,100.00
2023-04-02T22:59:11.468Z,100.00
2023-04-02T23:01:12.845Z,100.00
2023-04-02T23:03:09.154Z,100.00
2023-04-02T23:05:05.782Z,100.00
2023-04-02T23:07:01.821Z,100.00
2023-04-02T23:09:00.981Z,100.00
2023-04-02T23:11:03.767Z,100.00
2023-04-02T23:13:00.376Z,100.00
2023-04-02T23:15:02.456Z,100.00
2023-04-02T23:17:00.275Z,100.00
2023-04-02T23:18:57.289Z,100.00
2023-04-02T23:20:54.108Z,100.00
2023-04-02T23:22:51.628Z,100.00
2023-04-02T23:24:56.851Z,100.00
2023-04-02T23:26:55.992Z,100.00
2023-04-02T23:29:00.473Z,100.00
2023-04-02T23:31:10.536Z,100.00
2023-04-02T23:33:14.136Z,100.00
2023-04-02T23:35:36.502Z,100.00
2023-04-02T23:37:32.930Z,100.00
2023-04-02T23:39:33.429Z,100.00
2023-04-02T23:41:39.002Z,100.00
2023-04-02T23:43:46.664Z,100.00
2023-04-02T23:46:10.229Z,100.00
2023-04-02T23:48:14.826Z,100.00
2023-04-02T23:50:30.106Z,100.00
2023-04-02T23:52:29.512Z,100.00
2023-04-02T23:55:13.352Z,100.00
2023-04-02T23:57:17.352Z,100.00
2023-04-02T23:59:13.840Z,100.00
